sensor_id;sensor_type;location;lat;lon;timestamp;pressure;altitude;pressure_sealevel;temperature;humidity
19777;BME280;10047;42.490;26.012;2023-01-26T00:00:27;101124.75;;;2.76;100.00
19777;BME280;10047;42.490;26.012;2023-01-26T00:02:52;101200.34;;;3.27;100.00
19777;BME280;10047;42.490;26.012;2023-01-26T00:05:17;101099.41;;;2.65;100.00
19777;BME280;10047;42.490;26.012;2023-01-26T00:07:43;101108.69;;;2.70;100.00
19777;BME280;10047;42.490;26.012;2023-01-26T00:10:10;101204.41;;;3.20;100.00
19777;BME280;10047;42.490;26.012;2023-01-26T00:12:35;101091.94;;;2.67;100.00
19777;BME280;10047;42.490;26.012;2023-01-26T00:15:01;101104.88;;;2.85;100.00
19777;BME280;10047;42.490;26.012;2023-01-26T00:17:26;101091.06;;;2.67;100.00
19777;BME280;10047;42.490;26.012;2023-01-26T00:19:53;101173.31;;;3.56;100.00
19777;BME280;10047;42.490;26.012;2023-01-26T00:22:20;101137.25;;;3.13;100.00
19777;BME280;10047;42.490;26.012;2023-01-26T00:24:45;101170.94;;;3.21;100.00
19777;BME280;10047;42.490;26.012;2023-01-26T00:27:11;101092.84;;;2.71;100.00
19777;BME280;10047;42.490;26.012;2023-01-26T00:29:36;101159.44;;;3.32;100.00
19777;BME280;10047;42.490;26.012;2023-01-26T00:32:01;101089.06;;;2.89;100.00
19777;BME280;10047;42.490;26.012;2023-01-26T00:34:27;101185.94;;;3.17;100.00
19777;BME280;10047;42.490;26.012;2023-01-26T00:36:52;101068.59;;;2.34;100.00
19777;BME280;10047;42.490;26.012;2023-01-26T00:39:18;101181.69;;;2.77;100.00
19777;BME280;10047;42.490;26.012;2023-01-26T00:41:43;101177.63;;;2.84;100.00
19777;BME280;10047;42.490;26.012;2023-01-26T00:44:27;101167.66;;;2.85;100.00
19777;BME280;10047;42.490;26.012;2023-01-26T00:46:52;101087.00;;;2.34;100.00
19777;BME280;10047;42.490;26.012;2023-01-26T00:49:17;101169.47;;;2.92;100.00
19777;BME280;10047;42.490;26.012;2023-01-26T00:51:43;101095.53;;;2.41;100.00
19777;BME280;10047;42.490;26.012;2023-01-26T00:54:08;101176.88;;;2.88;100.00
19777;BME280;10047;42.490;26.012;2023-01-26T00:56:34;101170.50;;;3.02;100.00
19777;BME280;10047;42.490;26.012;2023-01-26T00:58:59;101154.44;;;2.94;100.00
19777;BME280;10047;42.490;26.012;2023-01-26T01:01:24;101160.53;;;3.05;100.00
19777;BME280;10047;42.490;26.012;2023-01-26T01:03:50;101106.50;;;2.46;100.00
19777;BME280;10047;42.490;26.012;2023-01-26T01:06:16;101168.72;;;2.96;100.00
19777;BME280;10047;42.490;26.012;2023-01-26T01:08:42;101091.66;;;2.55;100.00
19777;BME280;10047;42.490;26.012;2023-01-26T01:11:09;101074.81;;;2.49;100.00
19777;BME280;10047;42.490;26.012;2023-01-26T01:13:35;101149.91;;;3.16;100.00
19777;BME280;10047;42.490;26.012;2023-01-26T01:16:07;101083.53;;;2.65;100.00
19777;BME280;10047;42.490;26.012;2023-01-26T01:18:32;101147.78;;;2.97;100.00
19777;BME280;10047;42.490;26.012;2023-01-26T01:20:58;101098.91;;;2.82;100.00
19777;BME280;10047;42.490;26.012;2023-01-26T01:23:26;101067.38;;;2.54;100.00
19777;BME280;10047;42.490;26.012;2023-01-26T01:25:56;101080.41;;;2.75;100.00
19777;BME280;10047;42.490;26.012;2023-01-26T01:28:22;101046.09;;;2.37;100.00
19777;BME280;10047;42.490;26.012;2023-01-26T01:30:47;101039.44;;;2.39;100.00
19777;BME280;10047;42.490;26.012;2023-01-26T01:33:13;101047.97;;;2.45;100.00
19777;BME280;10047;42.490;26.012;2023-01-26T01:35:38;101020.22;;;2.39;100.00
19777;BME280;10047;42.490;26.012;2023-01-26T01:38:03;101049.09;;;2.22;100.00
19777;BME280;10047;42.490;26.012;2023-01-26T01:40:29;101125.84;;;2.87;100.00
19777;BME280;10047;42.490;26.012;2023-01-26T01:42:54;101122.63;;;2.93;100.00
19777;BME280;10047;42.490;26.012;2023-01-26T01:47:53;101035.72;;;2.59;100.00
19777;BME280;10047;42.490;26.012;2023-01-26T01:50:21;101039.81;;;2.55;100.00
19777;BME280;10047;42.490;26.012;2023-01-26T01:52:47;101102.56;;;2.96;100.00
19777;BME280;10047;42.490;26.012;2023-01-26T01:55:14;101040.78;;;2.62;100.00
19777;BME280;10047;42.490;26.012;2023-01-26T01:57:49;101029.59;;;2.48;100.00
19777;BME280;10047;42.490;26.012;2023-01-26T02:00:19;101020.50;;;2.51;100.00
19777;BME280;10047;42.490;26.012;2023-01-26T02:02:49;101113.75;;;3.10;100.00
19777;BME280;10047;42.490;26.012;2023-01-26T02:06:00;101056.25;;;2.82;100.00
19777;BME280;10047;42.490;26.012;2023-01-26T02:08:28;101108.56;;;3.01;100.00
19777;BME280;10047;42.490;26.012;2023-01-26T02:10:57;101019.63;;;2.51;100.00
19777;BME280;10047;42.490;26.012;2023-01-26T02:13:24;101100.16;;;3.00;100.00
19777;BME280;10047;42.490;26.012;2023-01-26T02:15:50;101062.53;;;3.03;100.00
19777;BME280;10047;42.490;26.012;2023-01-26T02:18:16;101032.69;;;2.75;100.00
19777;BME280;10047;42.490;26.012;2023-01-26T02:20:44;101036.25;;;2.85;100.00
19777;BME280;10047;42.490;26.012;2023-01-26T02:28:18;100984.44;;;2.48;100.00
19777;BME280;10047;42.490;26.012;2023-01-26T02:30:45;101098.69;;;3.10;100.00
19777;BME280;10047;42.490;26.012;2023-01-26T02:33:18;101066.53;;;2.94;100.00
19777;BME280;10047;42.490;26.012;2023-01-26T02:35:44;101087.25;;;3.25;100.00
19777;BME280;10047;42.490;26.012;2023-01-26T02:38:10;101007.84;;;2.87;100.00
19777;BME280;10047;42.490;26.012;2023-01-26T02:40:42;101013.66;;;2.85;100.00
19777;BME280;10047;42.490;26.012;2023-01-26T02:43:09;101022.94;;;2.50;100.00
19777;BME280;10047;42.490;26.012;2023-01-26T02:45:35;101032.88;;;2.84;100.00
19777;BME280;10047;42.490;26.012;2023-01-26T02:48:02;100997.22;;;2.20;100.00
19777;BME280;10047;42.490;26.012;2023-01-26T02:50:31;101032.66;;;2.35;100.00
19777;BME280;10047;42.490;26.012;2023-01-26T02:52:57;101007.88;;;2.50;100.00
19777;BME280;10047;42.490;26.012;2023-01-26T02:55:23;101008.16;;;2.62;100.00
19777;BME280;10047;42.490;26.012;2023-01-26T02:57:54;101107.28;;;2.81;100.00
19777;BME280;10047;42.490;26.012;2023-01-26T03:00:23;101018.22;;;2.63;100.00
19777;BME280;10047;42.490;26.012;2023-01-26T03:02:51;101105.22;;;3.02;100.00
19777;BME280;10047;42.490;26.012;2023-01-26T03:05:18;101019.81;;;2.60;100.00
19777;BME280;10047;42.490;26.012;2023-01-26T03:07:43;101089.25;;;2.98;100.00
19777;BME280;10047;42.490;26.012;2023-01-26T03:10:10;101016.44;;;2.58;100.00
19777;BME280;10047;42.490;26.012;2023-01-26T03:12:35;101007.97;;;2.53;100.00
19777;BME280;10047;42.490;26.012;2023-01-26T03:15:01;101049.41;;;2.73;100.00
19777;BME280;10047;42.490;26.012;2023-01-26T03:17:45;101052.06;;;2.81;100.00
19777;BME280;10047;42.490;26.012;2023-01-26T03:20:11;101059.47;;;2.75;100.00
19777;BME280;10047;42.490;26.012;2023-01-26T03:22:55;101002.56;;;2.75;100.00
19777;BME280;10047;42.490;26.012;2023-01-26T03:25:39;101048.16;;;2.95;100.00
19777;BME280;10047;42.490;26.012;2023-01-26T03:28:24;101002.91;;;2.93;100.00
19777;BME280;10047;42.490;26.012;2023-01-26T03:30:51;100897.81;;;2.23;100.00
19777;BME280;10047;42.490;26.012;2023-01-26T03:33:18;100981.09;;;2.47;100.00
19777;BME280;10047;42.490;26.012;2023-01-26T03:35:43;101051.91;;;2.73;100.00
19777;BME280;10047;42.490;26.012;2023-01-26T03:38:09;101042.22;;;2.91;100.00
19777;BME280;10047;42.490;26.012;2023-01-26T03:40:35;100973.75;;;2.56;100.00
19777;BME280;10047;42.490;26.012;2023-01-26T03:43:18;101032.47;;;3.06;100.00
19777;BME280;10047;42.490;26.012;2023-01-26T03:46:03;101051.19;;;3.22;100.00
19777;BME280;10047;42.490;26.012;2023-01-26T03:48:48;100891.09;;;2.22;100.00
19777;BME280;10047;42.490;26.012;2023-01-26T03:51:32;101042.75;;;2.75;100.00
19777;BME280;10047;42.490;26.012;2023-01-26T03:54:16;100962.16;;;2.23;100.00
19777;BME280;10047;42.490;26.012;2023-01-26T03:56:59;100948.19;;;2.34;100.00
19777;BME280;10047;42.490;26.012;2023-01-26T03:59:25;101023.78;;;2.89;100.00
19777;BME280;10047;42.490;26.012;2023-01-26T04:02:11;100953.84;;;2.24;100.00
19777;BME280;10047;42.490;26.012;2023-01-26T04:04:55;101033.78;;;2.88;100.00
19777;BME280;10047;42.490;26.012;2023-01-26T04:07:40;100960.28;;;2.51;100.00
19777;BME280;10047;42.490;26.012;2023-01-26T04:10:24;100998.53;;;2.41;100.00
19777;BME280;10047;42.490;26.012;2023-01-26T04:12:50;101021.81;;;2.75;100.00
19777;BME280;10047;42.490;26.012;2023-01-26T04:15:37;101028.06;;;2.95;100.00
19777;BME280;10047;42.490;26.012;2023-01-26T04:18:22;101003.16;;;2.63;100.00
19777;BME280;10047;42.490;26.012;2023-01-26T04:21:06;101002.34;;;2.64;100.00
19777;BME280;10047;42.490;26.012;2023-01-26T04:23:55;101016.50;;;2.61;100.00
19777;BME280;10047;42.490;26.012;2023-01-26T04:26:22;100951.44;;;2.30;100.00
19777;BME280;10047;42.490;26.012;2023-01-26T04:28:48;101025.81;;;2.67;100.00
19777;BME280;10047;42.490;26.012;2023-01-26T04:31:14;100959.66;;;2.23;100.00
19777;BME280;10047;42.490;26.012;2023-01-26T04:33:40;101001.47;;;2.62;100.00
19777;BME280;10047;42.490;26.012;2023-01-26T04:36:07;100922.59;;;4.65;100.00
19777;BME280;10047;42.490;26.012;2023-01-26T04:38:33;100911.94;;;2.61;100.00
19777;BME280;10047;42.490;26.012;2023-01-26T04:40:58;100927.66;;;2.13;100.00
19777;BME280;10047;42.490;26.012;2023-01-26T04:43:24;101001.63;;;2.70;100.00
19777;BME280;10047;42.490;26.012;2023-01-26T04:45:59;100976.69;;;2.37;100.00
19777;BME280;10047;42.490;26.012;2023-01-26T04:48:27;100979.16;;;2.36;100.00
19777;BME280;10047;42.490;26.012;2023-01-26T04:50:56;100905.00;;;2.08;100.00
19777;BME280;10047;42.490;26.012;2023-01-26T04:53:22;100873.59;;;2.24;100.00
19777;BME280;10047;42.490;26.012;2023-01-26T04:55:47;100965.22;;;2.48;100.00
19777;BME280;10047;42.490;26.012;2023-01-26T04:58:13;100837.13;;;1.99;100.00
19777;BME280;10047;42.490;26.012;2023-01-26T05:00:38;100938.31;;;2.41;100.00
19777;BME280;10047;42.490;26.012;2023-01-26T05:03:04;100942.41;;;2.38;100.00
19777;BME280;10047;42.490;26.012;2023-01-26T05:05:29;100948.69;;;2.59;100.00
19777;BME280;10047;42.490;26.012;2023-01-26T05:07:54;100937.84;;;2.59;100.00
19777;BME280;10047;42.490;26.012;2023-01-26T05:10:20;100954.06;;;2.76;100.00
19777;BME280;10047;42.490;26.012;2023-01-26T05:12:46;100912.47;;;2.45;100.00
19777;BME280;10047;42.490;26.012;2023-01-26T05:15:11;100948.28;;;2.80;100.00
19777;BME280;10047;42.490;26.012;2023-01-26T05:17:37;100942.66;;;2.93;100.00
19777;BME280;10047;42.490;26.012;2023-01-26T05:20:03;100936.16;;;2.59;100.00
19777;BME280;10047;42.490;26.012;2023-01-26T05:22:28;100917.63;;;2.53;100.00
19777;BME280;10047;42.490;26.012;2023-01-26T05:24:54;100778.41;;;1.46;100.00
19777;BME280;10047;42.490;26.012;2023-01-26T05:27:19;100932.00;;;2.61;100.00
19777;BME280;10047;42.490;26.012;2023-01-26T05:29:48;100929.41;;;2.55;100.00
19777;BME280;10047;42.490;26.012;2023-01-26T05:32:14;100938.44;;;2.91;100.00
19777;BME280;10047;42.490;26.012;2023-01-26T05:34:40;100944.25;;;2.88;100.00
19777;BME280;10047;42.490;26.012;2023-01-26T05:37:05;100857.59;;;2.19;100.00
19777;BME280;10047;42.490;26.012;2023-01-26T05:39:31;100932.56;;;2.47;100.00
19777;BME280;10047;42.490;26.012;2023-01-26T05:41:56;100837.75;;;2.31;100.00
19777;BME280;10047;42.490;26.012;2023-01-26T05:44:23;100932.88;;;2.63;100.00
19777;BME280;10047;42.490;26.012;2023-01-26T05:46:51;100881.53;;;2.45;100.00
19777;BME280;10047;42.490;26.012;2023-01-26T05:49:17;100927.69;;;2.98;100.00
19777;BME280;10047;42.490;26.012;2023-01-26T05:51:42;100962.03;;;3.00;100.00
19777;BME280;10047;42.490;26.012;2023-01-26T05:54:07;100862.44;;;2.11;100.00
19777;BME280;10047;42.490;26.012;2023-01-26T05:56:33;100895.56;;;2.35;100.00
19777;BME280;10047;42.490;26.012;2023-01-26T05:58:58;100941.94;;;2.55;100.00
19777;BME280;10047;42.490;26.012;2023-01-26T06:01:24;100954.75;;;2.69;100.00
19777;BME280;10047;42.490;26.012;2023-01-26T06:03:49;100949.75;;;2.69;100.00
19777;BME280;10047;42.490;26.012;2023-01-26T06:06:15;100864.53;;;2.32;100.00
19777;BME280;10047;42.490;26.012;2023-01-26T06:08:40;100931.25;;;2.65;100.00
19777;BME280;10047;42.490;26.012;2023-01-26T06:11:05;100937.88;;;2.62;100.00
19777;BME280;10047;42.490;26.012;2023-01-26T06:13:31;100937.13;;;2.66;100.00
19777;BME280;10047;42.490;26.012;2023-01-26T06:15:59;100920.16;;;2.53;100.00
19777;BME280;10047;42.490;26.012;2023-01-26T06:18:25;100893.81;;;2.76;100.00
19777;BME280;10047;42.490;26.012;2023-01-26T06:20:50;100842.88;;;2.35;100.00
19777;BME280;10047;42.490;26.012;2023-01-26T06:23:16;100900.97;;;2.56;100.00
19777;BME280;10047;42.490;26.012;2023-01-26T06:25:41;100831.03;;;2.28;100.00
19777;BME280;10047;42.490;26.012;2023-01-26T06:28:07;100885.69;;;2.46;100.00
19777;BME280;10047;42.490;26.012;2023-01-26T06:30:32;100920.63;;;2.77;100.00
19777;BME280;10047;42.490;26.012;2023-01-26T06:32:58;100931.47;;;2.78;100.00
19777;BME280;10047;42.490;26.012;2023-01-26T06:35:24;100873.13;;;2.44;100.00
19777;BME280;10047;42.490;26.012;2023-01-26T06:37:51;100852.06;;;2.35;100.00
19777;BME280;10047;42.490;26.012;2023-01-26T06:40:18;100876.44;;;2.42;100.00
19777;BME280;10047;42.490;26.012;2023-01-26T06:42:50;100921.53;;;2.82;100.00
19777;BME280;10047;42.490;26.012;2023-01-26T06:45:16;100892.69;;;2.60;100.00
19777;BME280;10047;42.490;26.012;2023-01-26T06:47:46;100884.94;;;2.50;100.00
19777;BME280;10047;42.490;26.012;2023-01-26T06:50:13;100842.25;;;2.47;100.00
19777;BME280;10047;42.490;26.012;2023-01-26T06:52:40;100853.03;;;2.41;100.00
19777;BME280;10047;42.490;26.012;2023-01-26T06:55:19;100930.97;;;2.95;100.00
19777;BME280;10047;42.490;26.012;2023-01-26T06:57:45;100902.53;;;2.96;100.00
19777;BME280;10047;42.490;26.012;2023-01-26T07:00:12;100913.03;;;3.22;100.00
19777;BME280;10047;42.490;26.012;2023-01-26T07:02:37;100935.66;;;3.23;100.00
19777;BME280;10047;42.490;26.012;2023-01-26T07:05:03;100862.94;;;2.82;100.00
19777;BME280;10047;42.490;26.012;2023-01-26T07:07:29;100842.91;;;2.83;100.00
19777;BME280;10047;42.490;26.012;2023-01-26T07:09:54;100921.75;;;2.94;100.00
19777;BME280;10047;42.490;26.012;2023-01-26T07:12:20;100918.72;;;3.12;100.00
19777;BME280;10047;42.490;26.012;2023-01-26T07:14:45;100840.00;;;2.60;100.00
19777;BME280;10047;42.490;26.012;2023-01-26T07:17:11;100915.53;;;2.74;100.00
19777;BME280;10047;42.490;26.012;2023-01-26T07:19:37;100892.84;;;2.70;100.00
19777;BME280;10047;42.490;26.012;2023-01-26T07:22:02;100916.00;;;3.01;100.00
19777;BME280;10047;42.490;26.012;2023-01-26T07:24:28;100914.31;;;2.99;100.00
19777;BME280;10047;42.490;26.012;2023-01-26T07:26:54;100917.81;;;3.07;100.00
19777;BME280;10047;42.490;26.012;2023-01-26T07:29:20;100894.06;;;2.90;100.00
19777;BME280;10047;42.490;26.012;2023-01-26T07:31:46;100923.34;;;2.89;100.00
19777;BME280;10047;42.490;26.012;2023-01-26T07:34:11;100894.69;;;2.78;100.00
19777;BME280;10047;42.490;26.012;2023-01-26T07:36:37;100913.25;;;2.86;100.00
19777;BME280;10047;42.490;26.012;2023-01-26T07:39:03;100919.13;;;2.87;100.00
19777;BME280;10047;42.490;26.012;2023-01-26T07:41:28;100854.50;;;2.77;100.00
19777;BME280;10047;42.490;26.012;2023-01-26T07:43:54;100838.72;;;2.84;100.00
19777;BME280;10047;42.490;26.012;2023-01-26T07:46:20;100882.69;;;3.10;100.00
19777;BME280;10047;42.490;26.012;2023-01-26T07:48:45;100899.25;;;2.99;100.00
19777;BME280;10047;42.490;26.012;2023-01-26T07:51:10;100886.84;;;3.09;100.00
19777;BME280;10047;42.490;26.012;2023-01-26T07:53:36;100895.44;;;3.20;100.00
19777;BME280;10047;42.490;26.012;2023-01-26T07:56:12;100902.97;;;3.20;100.00
19777;BME280;10047;42.490;26.012;2023-01-26T07:58:39;100882.38;;;2.92;100.00
19777;BME280;10047;42.490;26.012;2023-01-26T08:01:13;100877.84;;;3.19;100.00
19777;BME280;10047;42.490;26.012;2023-01-26T08:03:39;100864.25;;;3.09;100.00
19777;BME280;10047;42.490;26.012;2023-01-26T08:06:05;100782.47;;;2.71;100.00
19777;BME280;10047;42.490;26.012;2023-01-26T08:08:31;100777.34;;;2.67;100.00
19777;BME280;10047;42.490;26.012;2023-01-26T08:10:58;100763.94;;;2.64;100.00
19777;BME280;10047;42.490;26.012;2023-01-26T08:13:24;100827.53;;;3.17;100.00
19777;BME280;10047;42.490;26.012;2023-01-26T08:15:50;100778.63;;;2.94;100.00
19777;BME280;10047;42.490;26.012;2023-01-26T08:18:15;100738.81;;;2.63;100.00
19777;BME280;10047;42.490;26.012;2023-01-26T08:20:41;100844.25;;;3.15;100.00
19777;BME280;10047;42.490;26.012;2023-01-26T08:23:13;100842.72;;;3.25;100.00
19777;BME280;10047;42.490;26.012;2023-01-26T08:25:38;100771.00;;;2.88;100.00
19777;BME280;10047;42.490;26.012;2023-01-26T08:28:03;100787.72;;;2.86;100.00
19777;BME280;10047;42.490;26.012;2023-01-26T08:30:29;100746.38;;;2.64;100.00
19777;BME280;10047;42.490;26.012;2023-01-26T08:32:54;100836.88;;;3.24;100.00
19777;BME280;10047;42.490;26.012;2023-01-26T08:35:19;100750.59;;;2.67;100.00
19777;BME280;10047;42.490;26.012;2023-01-26T08:37:45;100850.22;;;3.20;100.00
19777;BME280;10047;42.490;26.012;2023-01-26T08:40:11;100709.13;;;2.38;100.00
19777;BME280;10047;42.490;26.012;2023-01-26T08:42:36;100826.31;;;2.93;100.00
19777;BME280;10047;42.490;26.012;2023-01-26T08:45:02;100844.22;;;3.11;100.00
19777;BME280;10047;42.490;26.012;2023-01-26T08:47:27;100846.00;;;3.19;100.00
19777;BME280;10047;42.490;26.012;2023-01-26T08:49:53;100775.44;;;3.04;100.00
19777;BME280;10047;42.490;26.012;2023-01-26T08:52:18;100852.31;;;3.48;100.00
19777;BME280;10047;42.490;26.012;2023-01-26T08:54:45;100871.75;;;3.60;100.00
19777;BME280;10047;42.490;26.012;2023-01-26T08:57:11;100854.09;;;3.56;100.00
19777;BME280;10047;42.490;26.012;2023-01-26T08:59:36;100837.25;;;3.50;100.00
19777;BME280;10047;42.490;26.012;2023-01-26T09:02:02;100842.31;;;3.53;100.00
19777;BME280;10047;42.490;26.012;2023-01-26T09:04:27;100769.78;;;3.17;100.00
19777;BME280;10047;42.490;26.012;2023-01-26T09:06:53;100790.09;;;3.32;100.00
19777;BME280;10047;42.490;26.012;2023-01-26T09:09:18;100742.13;;;3.16;100.00
19777;BME280;10047;42.490;26.012;2023-01-26T09:11:43;100698.31;;;2.96;100.00
19777;BME280;10047;42.490;26.012;2023-01-26T09:14:09;100820.19;;;3.91;100.00
19777;BME280;10047;42.490;26.012;2023-01-26T09:16:34;100690.69;;;2.88;100.00
19777;BME280;10047;42.490;26.012;2023-01-26T09:19:00;100828.53;;;3.87;100.00
19777;BME280;10047;42.490;26.012;2023-01-26T09:21:25;100732.44;;;3.43;100.00
19777;BME280;10047;42.490;26.012;2023-01-26T09:23:51;100806.66;;;3.80;100.00
19777;BME280;10047;42.490;26.012;2023-01-26T09:26:16;100742.47;;;3.41;100.00
19777;BME280;10047;42.490;26.012;2023-01-26T09:28:42;100777.03;;;3.58;100.00
19777;BME280;10047;42.490;26.012;2023-01-26T09:31:09;100706.09;;;3.12;100.00
19777;BME280;10047;42.490;26.012;2023-01-26T09:33:35;100761.19;;;3.65;100.00
19777;BME280;10047;42.490;26.012;2023-01-26T09:36:08;100768.16;;;3.85;100.00
19777;BME280;10047;42.490;26.012;2023-01-26T09:38:34;100756.38;;;3.81;100.00
19777;BME280;10047;42.490;26.012;2023-01-26T09:43:41;100738.88;;;3.90;100.00
19777;BME280;10047;42.490;26.012;2023-01-26T09:46:22;100736.41;;;3.92;100.00
19777;BME280;10047;42.490;26.012;2023-01-26T09:49:06;100655.47;;;3.51;100.00
19777;BME280;10047;42.490;26.012;2023-01-26T09:51:39;100644.94;;;3.84;100.00
19777;BME280;10047;42.490;26.012;2023-01-26T09:54:24;100725.81;;;4.26;100.00
19777;BME280;10047;42.490;26.012;2023-01-26T09:56:51;100718.28;;;4.26;100.00
19777;BME280;10047;42.490;26.012;2023-01-26T09:59:39;100728.31;;;4.21;100.00
19777;BME280;10047;42.490;26.012;2023-01-26T10:04:36;100709.06;;;4.28;100.00
19777;BME280;10047;42.490;26.012;2023-01-26T10:07:13;100619.00;;;3.88;100.00
19777;BME280;10047;42.490;26.012;2023-01-26T10:09:40;100684.88;;;4.39;100.00
19777;BME280;10047;42.490;26.012;2023-01-26T10:12:16;100613.34;;;4.13;100.00
19777;BME280;10047;42.490;26.012;2023-01-26T10:14:50;100687.22;;;4.21;100.00
19777;BME280;10047;42.490;26.012;2023-01-26T10:17:32;100623.41;;;4.11;100.00
19777;BME280;10047;42.490;26.012;2023-01-26T10:20:00;100675.56;;;4.29;100.00
19777;BME280;10047;42.490;26.012;2023-01-26T10:22:39;100662.22;;;4.42;100.00
19777;BME280;10047;42.490;26.012;2023-01-26T10:25:15;100661.59;;;4.67;100.00
19777;BME280;10047;42.490;26.012;2023-01-26T10:27:41;100526.03;;;3.94;100.00
19777;BME280;10047;42.490;26.012;2023-01-26T10:30:12;100643.84;;;4.51;100.00
19777;BME280;10047;42.490;26.012;2023-01-26T10:32:40;100641.38;;;4.58;100.00
19777;BME280;10047;42.490;26.012;2023-01-26T10:35:13;100630.50;;;4.61;100.00
19777;BME280;10047;42.490;26.012;2023-01-26T10:37:40;100625.38;;;4.50;100.00
19777;BME280;10047;42.490;26.012;2023-01-26T10:40:06;100619.53;;;4.53;100.00
19777;BME280;10047;42.490;26.012;2023-01-26T10:42:33;100609.50;;;4.60;100.00
19777;BME280;10047;42.490;26.012;2023-01-26T10:45:01;100598.72;;;4.82;100.00
19777;BME280;10047;42.490;26.012;2023-01-26T10:47:28;100551.66;;;4.72;100.00
19777;BME280;10047;42.490;26.012;2023-01-26T10:50:14;100574.47;;;5.01;100.00
19777;BME280;10047;42.490;26.012;2023-01-26T10:52:59;100576.06;;;4.88;100.00
19777;BME280;10047;42.490;26.012;2023-01-26T10:55:26;100478.47;;;4.36;100.00
19777;BME280;10047;42.490;26.012;2023-01-26T10:57:51;100432.31;;;4.29;100.00
19777;BME280;10047;42.490;26.012;2023-01-26T11:00:24;100538.31;;;4.97;100.00
19777;BME280;10047;42.490;26.012;2023-01-26T11:03:25;100523.19;;;4.97;100.00
19777;BME280;10047;42.490;26.012;2023-01-26T11:06:25;100481.09;;;4.60;100.00
19777;BME280;10047;42.490;26.012;2023-01-26T11:08:51;100519.78;;;4.83;100.00
19777;BME280;10047;42.490;26.012;2023-01-26T11:11:26;100525.72;;;4.93;100.00
19777;BME280;10047;42.490;26.012;2023-01-26T11:14:18;100534.97;;;4.92;100.00
19777;BME280;10047;42.490;26.012;2023-01-26T11:17:12;100530.75;;;4.91;100.00
19777;BME280;10047;42.490;26.012;2023-01-26T11:19:46;100539.97;;;4.89;100.00
19777;BME280;10047;42.490;26.012;2023-01-26T11:22:25;100426.47;;;4.35;100.00
19777;BME280;10047;42.490;26.012;2023-01-26T11:39:30;100485.44;;;5.00;100.00
19777;BME280;10047;42.490;26.012;2023-01-26T11:44:45;100502.25;;;5.13;100.00
19777;BME280;10047;42.490;26.012;2023-01-26T11:47:25;100458.56;;;4.95;100.00
19777;BME280;10047;42.490;26.012;2023-01-26T11:50:00;100503.13;;;5.29;100.00
19777;BME280;10047;42.490;26.012;2023-01-26T11:52:47;100403.97;;;4.91;100.00
19777;BME280;10047;42.490;26.012;2023-01-26T11:55:30;100493.09;;;5.43;100.00
19777;BME280;10047;42.490;26.012;2023-01-26T12:00:39;100473.75;;;5.48;100.00
19777;BME280;10047;42.490;26.012;2023-01-26T12:03:16;100461.97;;;5.51;100.00
19777;BME280;10047;42.490;26.012;2023-01-26T12:05:49;100357.78;;;4.87;100.00
19777;BME280;10047;42.490;26.012;2023-01-26T12:08:30;100319.19;;;4.67;100.00
19777;BME280;10047;42.490;26.012;2023-01-26T12:11:14;100372.06;;;5.09;100.00
19777;BME280;10047;42.490;26.012;2023-01-26T12:21:48;100393.06;;;5.48;100.00
19777;BME280;10047;42.490;26.012;2023-01-26T12:24:22;100434.25;;;5.63;100.00
19777;BME280;10047;42.490;26.012;2023-01-26T12:26:52;100450.19;;;5.73;100.00
19777;BME280;10047;42.490;26.012;2023-01-26T12:29:29;100433.38;;;5.75;100.00
19777;BME280;10047;42.490;26.012;2023-01-26T12:32:06;100358.66;;;5.35;100.00
19777;BME280;10047;42.490;26.012;2023-01-26T12:34:34;100386.34;;;5.63;100.00
19777;BME280;10047;42.490;26.012;2023-01-26T12:39:45;100395.56;;;5.72;100.00
19777;BME280;10047;42.490;26.012;2023-01-26T12:45:06;100304.03;;;5.32;100.00
19777;BME280;10047;42.490;26.012;2023-01-26T12:47:52;100328.38;;;5.39;100.00
19777;BME280;10047;42.490;26.012;2023-01-26T12:50:38;100407.31;;;5.80;100.00
19777;BME280;10047;42.490;26.012;2023-01-26T12:53:15;100419.13;;;5.87;100.00
19777;BME280;10047;42.490;26.012;2023-01-26T12:55:50;100330.91;;;5.33;100.00
19777;BME280;10047;42.490;26.012;2023-01-26T12:58:25;100411.53;;;5.80;100.00
19777;BME280;10047;42.490;26.012;2023-01-26T13:01:04;100335.94;;;5.32;100.00
19777;BME280;10047;42.490;26.012;2023-01-26T13:03:33;100384.66;;;5.65;100.00
19777;BME280;10047;42.490;26.012;2023-01-26T13:11:04;100273.00;;;5.04;100.00
19777;BME280;10047;42.490;26.012;2023-01-26T13:13:34;100404.78;;;5.92;100.00
19777;BME280;10047;42.490;26.012;2023-01-26T13:18:55;100356.06;;;5.69;100.00
19777;BME280;10047;42.490;26.012;2023-01-26T13:26:53;100376.22;;;5.92;100.00
19777;BME280;10047;42.490;26.012;2023-01-26T13:32:00;100324.97;;;5.63;100.00
19777;BME280;10047;42.490;26.012;2023-01-26T13:34:40;100398.88;;;6.05;100.00
19777;BME280;10047;42.490;26.012;2023-01-26T13:37:31;100233.53;;;5.11;100.00
19777;BME280;10047;42.490;26.012;2023-01-26T13:40:02;100390.47;;;6.05;100.00
19777;BME280;10047;42.490;26.012;2023-01-26T13:42:35;100339.22;;;5.89;100.00
19777;BME280;10047;42.490;26.012;2023-01-26T13:45:06;100371.06;;;6.21;100.00
19777;BME280;10047;42.490;26.012;2023-01-26T13:47:42;100330.81;;;5.93;100.00
19777;BME280;10047;42.490;26.012;2023-01-26T13:50:30;100370.22;;;6.23;100.00
19777;BME280;10047;42.490;26.012;2023-01-26T13:52:56;100305.59;;;5.84;100.00
19777;BME280;10047;42.490;26.012;2023-01-26T13:55:28;100347.56;;;6.09;100.00